Terminal Aerodrome Forecast
Issued by NWS

Home | Current Version | Previous Version | Text Only | Print | Product List | Glossary On
Versions: 1 2 3 4 5 6 7 8 9 10 11 12 13 14 15 16
683
FTUS44 KLZK 202335
TAFPBF
TAF
KPBF 202335Z 2100/2124 17008KT P6SM VCSH BKN035 OVC050
      WS020/19040KT
      TEMPO 2100/2103 OVC030
     FM210300 16007KT P6SM -DZ SCT008 OVC025 WS020/19040KT
     FM210800 17007KT 6SM -DZ BR OVC015
      TEMPO 2108/2112 4SM -DZ BR OVC008
     FM211500 17007G16KT P6SM -DZ SCT008 OVC020=

USA.gov is the U.S. government's official web portal to all federal, state and local government web resources and services.